Time;durP1;ratioP1;P1;durP2;ratioP2;P2;SDS_P1;SDS_P2;PMS_P1;PMS_P2;Temp;Humidity;BMP_temperature;BMP_pressure;BME280_temperature;BME280_humidity;BME280_pressure;Samples;Min_cycle;Max_cycle;Signal;HPM_P1;HPM_P2
2024/04/09 00:00:32;;;;;;;4.65;1.50;;;;;;;5.92;100.00;99186.31;4753089;29;20085;-82
2024/04/09 00:02:58;;;;;;;7.20;1.92;;;;;;;5.96;100.00;99189.44;4785360;29;20031;-85
2024/04/09 00:05:31;;;;;;;6.53;1.73;;;;;;;5.98;100.00;99199.81;4766951;29;20042;-85
2024/04/09 00:08:03;;;;;;;9.88;1.73;;;;;;;5.96;100.00;99192.06;4764974;30;20031;-82
2024/04/09 00:10:31;;;;;;;5.00;1.73;;;;;;;5.94;100.00;99194.84;4747285;29;20044;-81
2024/04/09 00:12:58;;;;;;;3.78;1.17;;;;;;;5.96;100.00;99205.19;4750149;30;20036;-80
2024/04/09 00:15:24;;;;;;;4.95;1.58;;;;;;;5.93;100.00;99208.94;4745229;29;20071;-82
2024/04/09 00:17:56;;;;;;;3.70;1.77;;;;;;;5.98;100.00;99224.25;4762410;29;20088;-79
2024/04/09 00:20:24;;;;;;;4.32;1.95;;;;;;;5.99;100.00;99233.75;4750808;29;20052;-85
2024/04/09 00:22:51;;;;;;;5.60;1.75;;;;;;;5.98;100.00;99233.91;4751754;30;20537;-83
2024/04/09 00:25:18;;;;;;;7.95;1.90;;;;;;;5.98;100.00;99229.50;4761788;29;20101;-83
2024/04/09 00:27:45;;;;;;;8.40;1.98;;;;;;;5.98;100.00;99229.50;4758312;29;20139;-83
2024/04/09 00:30:12;;;;;;;6.47;1.95;;;;;;;5.99;100.00;99230.31;4752762;30;20051;-83
2024/04/09 00:32:38;;;;;;;6.82;1.88;;;;;;;6.00;100.00;99237.22;4747785;30;20045;-79
2024/04/09 00:35:04;;;;;;;9.50;2.42;;;;;;;6.01;100.00;99233.59;4752718;29;20039;-83
2024/04/09 00:37:30;;;;;;;6.95;2.30;;;;;;;6.01;100.00;99241.47;4752626;30;20044;-81
2024/04/09 00:39:56;;;;;;;7.25;1.83;;;;;;;5.99;100.00;99241.63;4752952;29;20043;-83
2024/04/09 00:42:21;;;;;;;6.10;2.13;;;;;;;5.90;100.00;99250.34;4763734;30;20073;-86
2024/04/09 00:44:48;;;;;;;6.15;1.70;;;;;;;5.92;100.00;99251.88;4772985;29;20067;-86
2024/04/09 00:47:16;;;;;;;8.02;2.25;;;;;;;5.92;100.00;99251.06;4756158;30;20401;-83
2024/04/09 00:49:45;;;;;;;4.28;1.58;;;;;;;5.96;100.00;99260.28;4765578;29;20043;-83
2024/04/09 00:52:13;;;;;;;6.30;2.17;;;;;;;5.98;100.00;99257.50;4737406;30;20058;-84
2024/04/09 00:54:39;;;;;;;5.07;1.77;;;;;;;5.96;100.00;99265.50;4749964;29;20039;-81
2024/04/09 00:57:06;;;;;;;10.02;1.42;;;;;;;5.97;100.00;99261.94;4768021;29;20035;-85
2024/04/09 00:59:34;;;;;;;8.85;1.50;;;;;;;5.98;100.00;99281.94;4769463;29;20038;-84
2024/04/09 01:02:01;;;;;;;10.00;2.05;;;;;;;5.95;100.00;99269.97;4755014;30;20040;-80
2024/04/09 01:04:27;;;;;;;7.03;1.77;;;;;;;5.94;100.00;99280.59;4753757;29;20097;-83
2024/04/09 01:06:53;;;;;;;12.65;2.33;;;;;;;5.95;100.00;99280.44;4770763;30;20451;-83
2024/04/09 01:09:19;;;;;;;12.27;1.88;;;;;;;5.98;100.00;99283.72;4780941;29;20561;-82
2024/04/09 01:11:45;;;;;;;4.35;1.38;;;;;;;5.98;100.00;99302.09;4768061;29;20039;-85
2024/04/09 01:14:11;;;;;;;2.22;1.15;;;;;;;5.92;100.00;99304.34;4755576;29;20113;-87
2024/04/09 01:16:37;;;;;;;6.07;1.67;;;;;;;5.93;100.00;99313.00;4763563;29;20109;-84
2024/04/09 01:19:04;;;;;;;6.35;1.98;;;;;;;5.92;100.00;99311.38;4759503;29;20043;-84
2024/04/09 01:21:29;;;;;;;6.03;1.92;;;;;;;5.92;100.00;99308.75;4747129;29;20063;-84
2024/04/09 01:23:55;;;;;;;4.45;1.23;;;;;;;5.90;100.00;99313.31;4770295;29;20125;-84
2024/04/09 01:26:23;;;;;;;4.65;1.30;;;;;;;5.95;100.00;99326.81;4762363;30;20055;-80
2024/04/09 01:28:48;;;;;;;8.55;1.27;;;;;;;5.90;100.00;99324.63;4754713;29;20039;-82
2024/04/09 01:31:15;;;;;;;5.68;1.17;;;;;;;5.94;100.00;99323.38;4712968;29;20031;-84
2024/04/09 01:33:42;;;;;;;5.85;1.08;;;;;;;5.96;100.00;99336.34;4767052;29;20683;-84
2024/04/09 01:36:10;;;;;;;8.20;1.00;;;;;;;5.91;100.00;99336.75;4773919;30;20405;-84
2024/04/09 01:38:36;;;;;;;8.55;1.40;;;;;;;5.94;100.00;99333.06;4738586;29;20050;-86
2024/04/09 01:41:02;;;;;;;6.53;0.93;;;;;;;5.92;100.00;99329.72;4732044;30;20050;-85
2024/04/09 01:43:28;;;;;;;4.72;1.00;;;;;;;5.87;100.00;99343.28;4761332;29;20040;-82
2024/04/09 01:45:54;;;;;;;5.53;1.25;;;;;;;5.90;100.00;99345.63;4754191;30;20047;-82
2024/04/09 01:48:22;;;;;;;11.20;1.05;;;;;;;5.90;100.00;99352.63;4771406;29;20046;-84
2024/04/09 01:50:47;;;;;;;7.53;0.95;;;;;;;5.77;100.00;99350.31;4770064;30;20100;-82
2024/04/09 01:53:13;;;;;;;5.95;0.93;;;;;;;5.79;100.00;99343.97;4769006;29;20480;-82
2024/04/09 01:55:39;;;;;;;4.93;0.80;;;;;;;5.77;100.00;99352.94;4754323;29;20031;-85
2024/04/09 01:58:07;;;;;;;2.47;0.80;;;;;;;5.77;100.00;99343.28;4768667;29;20061;-86
2024/04/09 02:00:35;;;;;;;8.10;1.25;;;;;;;5.79;100.00;99348.38;4755225;29;20075;-81
2024/04/09 02:03:01;;;;;;;4.03;1.00;;;;;;;5.77;100.00;99345.06;4765890;30;20047;-82
2024/04/09 02:05:27;;;;;;;2.38;0.68;;;;;;;5.77;100.00;99350.31;4759297;30;20067;-87
2024/04/09 02:07:53;;;;;;;6.85;0.70;;;;;;;5.71;100.00;99347.31;4767865;29;20074;-82
2024/04/09 02:10:19;;;;;;;5.43;0.68;;;;;;;5.65;100.00;99354.91;4764761;29;20414;-85
2024/04/09 02:12:45;;;;;;;4.75;0.77;;;;;;;5.66;100.00;99365.25;4767622;29;20047;-86
2024/04/09 02:15:12;;;;;;;6.85;0.88;;;;;;;5.63;100.00;99362.91;4730578;29;20047;-82
2024/04/09 02:17:38;;;;;;;6.03;0.82;;;;;;;5.65;100.00;99379.31;4766177;29;20039;-81
2024/04/09 02:20:09;;;;;;;7.72;1.00;;;;;;;5.63;100.00;99368.13;4735290;30;20670;-85
2024/04/09 02:22:35;;;;;;;4.60;0.63;;;;;;;5.61;100.00;99371.84;4762555;30;20042;-86
2024/04/09 02:25:00;;;;;;;4.50;0.93;;;;;;;5.59;100.00;99375.44;4759218;30;20040;-83
2024/04/09 02:27:27;;;;;;;11.23;0.70;;;;;;;5.58;100.00;99386.06;4751661;30;20431;-84
2024/04/09 02:29:53;;;;;;;10.00;1.13;;;;;;;5.57;100.00;99400.16;4765580;30;20046;-80
2024/04/09 02:32:18;;;;;;;4.85;1.15;;;;;;;5.56;100.00;99403.72;4720336;30;20039;-81
2024/04/09 02:34:44;;;;;;;8.77;0.93;;;;;;;5.54;100.00;99411.72;4731761;30;20134;-80
2024/04/09 02:37:10;;;;;;;5.38;0.90;;;;;;;5.54;100.00;99421.41;4720041;30;20508;-81
2024/04/09 02:39:36;;;;;;;3.53;0.60;;;;;;;5.57;100.00;99423.75;4712144;30;20147;-82
2024/04/09 02:42:03;;;;;;;7.22;0.93;;;;;;;5.53;100.00;99409.25;4729523;30;20034;-85
2024/04/09 02:44:29;;;;;;;7.50;1.15;;;;;;;5.53;100.00;99433.66;4744340;30;20044;-81
2024/04/09 02:46:55;;;;;;;11.05;1.25;;;;;;;5.53;100.00;99431.03;4737087;30;20051;-80
2024/04/09 02:49:21;;;;;;;5.60;1.05;;;;;;;5.50;100.00;99439.19;4769882;30;20056;-81
2024/04/09 02:51:48;;;;;;;7.25;0.90;;;;;;;5.52;100.00;99449.53;4766829;30;20120;-85
2024/04/09 02:54:14;;;;;;;5.97;1.05;;;;;;;5.44;100.00;99430.09;4757045;30;20036;-84
2024/04/09 02:56:40;;;;;;;8.02;0.70;;;;;;;5.40;100.00;99439.16;4767926;30;20553;-84
2024/04/09 02:59:06;;;;;;;9.35;1.20;;;;;;;5.36;100.00;99444.81;4739153;30;20143;-82
2024/04/09 03:01:31;;;;;;;13.30;1.30;;;;;;;5.38;100.00;99463.84;4748981;30;21466;-89
2024/04/09 03:03:57;;;;;;;6.70;0.80;;;;;;;5.37;100.00;99449.91;4741336;30;20035;-86
2024/04/09 03:06:23;;;;;;;9.25;1.17;;;;;;;5.31;100.00;99460.94;4721292;30;20051;-81
2024/04/09 03:08:50;;;;;;;5.68;0.60;;;;;;;5.29;100.00;99474.19;4756422;30;20046;-84
2024/04/09 03:11:19;;;;;;;5.07;0.77;;;;;;;5.29;100.00;99476.78;4731062;30;20053;-83
2024/04/09 03:13:49;;;;;;;10.15;0.98;;;;;;;5.27;100.00;99478.72;4743045;30;20038;-83
2024/04/09 03:16:17;;;;;;;12.73;1.33;;;;;;;5.24;100.00;99486.03;4726158;30;20039;-83
2024/04/09 03:18:43;;;;;;;8.90;1.10;;;;;;;5.21;100.00;99490.56;4756134;29;20058;-82
2024/04/09 03:21:09;;;;;;;4.93;0.95;;;;;;;5.22;100.00;99492.22;4767151;29;20051;-81
2024/04/09 03:23:35;;;;;;;10.82;0.75;;;;;;;5.17;100.00;99491.81;4784421;29;20428;-84
2024/04/09 03:26:01;;;;;;;8.70;0.90;;;;;;;5.16;100.00;99492.75;4771765;29;20051;-84
2024/04/09 03:28:27;;;;;;;6.43;0.82;;;;;;;5.13;100.00;99493.00;4783503;29;20039;-84
2024/04/09 03:30:57;;;;;;;8.57;1.48;;;;;;;5.13;100.00;99513.97;4755750;29;20055;-86
2024/04/09 03:33:23;;;;;;;6.88;0.95;;;;;;;5.08;100.00;99513.56;4756506;30;20051;-83
2024/04/09 03:35:57;;;;;;;8.77;1.02;;;;;;;5.09;100.00;99517.81;4737202;29;20040;-83
2024/04/09 03:38:23;;;;;;;6.03;0.98;;;;;;;5.03;100.00;99519.16;4757070;29;20457;-83
2024/04/09 03:40:53;;;;;;;10.07;1.58;;;;;;;5.03;100.00;99521.78;4754608;29;20401;-83
2024/04/09 03:43:19;;;;;;;6.85;0.90;;;;;;;4.98;100.00;99518.75;4758374;29;20641;-79
2024/04/09 03:46:03;;;;;;;11.73;1.33;;;;;;;5.01;100.00;99525.50;4754727;30;20511;-83
2024/04/09 03:48:29;;;;;;;6.68;1.08;;;;;;;4.94;100.00;99530.44;4757147;29;20059;-82
2024/04/09 03:50:58;;;;;;;4.95;0.80;;;;;;;4.99;100.00;99535.28;4757457;30;20046;-80
2024/04/09 03:53:25;;;;;;;7.45;1.58;;;;;;;4.95;100.00;99530.28;4768377;29;20561;-82
2024/04/09 03:56:02;;;;;;;11.20;1.00;;;;;;;4.96;100.00;99529.34;4749663;29;20042;-84
2024/04/09 03:58:31;;;;;;;7.30;1.02;;;;;;;4.95;100.00;99539.97;4767420;29;20049;-87
2024/04/09 04:00:58;;;;;;;6.90;1.02;;;;;;;4.95;100.00;99537.34;4750488;29;20566;-80
2024/04/09 04:03:25;;;;;;;7.20;0.98;;;;;;;4.94;100.00;99533.88;4768413;30;20130;-81
2024/04/09 04:05:56;;;;;;;9.63;0.95;;;;;;;4.92;100.00;99535.78;4739267;30;20034;-80
2024/04/09 04:08:23;;;;;;;9.73;0.88;;;;;;;4.91;100.00;99544.63;4750235;30;20078;-82
2024/04/09 04:10:59;;;;;;;6.65;1.23;;;;;;;4.93;100.00;99536.63;4754945;29;20032;-82
2024/04/09 04:13:27;;;;;;;10.80;1.60;;;;;;;4.91;100.00;99549.84;4769062;29;20070;-82
2024/04/09 04:15:56;;;;;;;10.73;1.15;;;;;;;4.90;100.00;99550.81;4755940;30;20035;-83
2024/04/09 04:18:22;;;;;;;9.73;0.68;;;;;;;4.87;100.00;99552.88;4754751;29;20051;-87
2024/04/09 04:20:52;;;;;;;8.50;1.08;;;;;;;4.89;100.00;99551.75;4782166;29;20566;-83
2024/04/09 04:23:18;;;;;;;7.47;1.17;;;;;;;4.84;100.00;99567.06;4750553;29;20039;-87
2024/04/09 04:25:56;;;;;;;8.52;0.73;;;;;;;4.89;100.00;99572.72;4747925;29;20035;-79
2024/04/09 04:28:21;;;;;;;8.40;1.35;;;;;;;4.85;100.00;99576.56;4765316;29;20052;-82
2024/04/09 04:30:47;;;;;;;7.22;0.73;;;;;;;4.82;100.00;99579.44;4765226;30;20036;-83
2024/04/09 04:33:13;;;;;;;6.18;0.77;;;;;;;4.82;100.00;99584.69;4768999;29;20031;-84
2024/04/09 04:35:39;;;;;;;4.70;0.85;;;;;;;4.83;100.00;99583.72;4758935;30;20039;-86
2024/04/09 04:38:05;;;;;;;6.35;0.80;;;;;;;4.82;100.00;99584.69;4757537;29;20062;-85
2024/04/09 04:40:31;;;;;;;7.43;0.98;;;;;;;4.81;100.00;99590.88;4758625;30;20055;-81
2024/04/09 04:42:57;;;;;;;9.60;1.13;;;;;;;4.79;100.00;99585.78;4769345;29;20446;-82
2024/04/09 04:45:22;;;;;;;5.22;1.00;;;;;;;4.78;100.00;99584.09;4779442;29;20389;-87
2024/04/09 04:47:48;;;;;;;2.97;0.43;;;;;;;4.77;100.00;99587.69;4757528;30;20082;-85
2024/04/09 04:50:14;;;;;;;5.63;0.70;;;;;;;4.75;100.00;99594.81;4771460;30;20043;-86
2024/04/09 04:52:40;;;;;;;5.28;0.80;;;;;;;4.79;100.00;99600.63;4782792;29;20055;-80
2024/04/09 04:55:06;;;;;;;8.88;1.17;;;;;;;4.74;100.00;99606.25;4755866;29;20463;-82
2024/04/09 04:57:32;;;;;;;11.50;1.17;;;;;;;4.78;100.00;99610.28;4763844;30;20039;-79
2024/04/09 04:59:58;;;;;;;5.82;0.80;;;;;;;4.73;100.00;99615.06;4756815;29;20132;-83
2024/04/09 05:02:24;;;;;;;11.82;1.20;;;;;;;4.75;100.00;99612.31;4762027;30;20039;-88
2024/04/09 05:04:53;;;;;;;4.15;0.52;;;;;;;4.73;100.00;99622.91;4766575;29;20039;-81
2024/04/09 05:07:19;;;;;;;7.03;0.85;;;;;;;4.73;100.00;99633.38;4763078;30;20127;-84
2024/04/09 05:09:45;;;;;;;7.40;0.80;;;;;;;4.70;100.00;99629.25;4740863;30;20043;-83
2024/04/09 05:12:11;;;;;;;5.50;0.65;;;;;;;4.66;100.00;99642.72;4773346;29;20043;-84
2024/04/09 05:14:37;;;;;;;8.60;0.60;;;;;;;4.64;100.00;99644.59;4766549;29;20039;-82
2024/04/09 05:17:04;;;;;;;5.60;0.70;;;;;;;4.62;100.00;99636.88;4766998;29;20031;-82
2024/04/09 05:19:32;;;;;;;5.00;0.75;;;;;;;4.61;100.00;99650.94;4749450;30;20056;-88
2024/04/09 05:21:58;;;;;;;4.40;1.05;;;;;;;4.63;100.00;99650.81;4752146;30;20165;-84
2024/04/09 05:24:24;;;;;;;5.05;0.77;;;;;;;4.61;100.00;99652.72;4751520;30;20122;-83
2024/04/09 05:26:50;;;;;;;2.90;0.50;;;;;;;4.59;100.00;99661.53;4737081;30;20054;-85
2024/04/09 05:29:16;;;;;;;5.25;0.85;;;;;;;4.58;100.00;99665.13;4763242;30;20117;-82
2024/04/09 05:31:42;;;;;;;5.53;0.73;;;;;;;4.57;100.00;99666.06;4729670;30;20048;-82
2024/04/09 05:34:07;;;;;;;11.77;1.42;;;;;;;4.59;100.00;99676.41;4733874;30;20123;-79
2024/04/09 05:36:33;;;;;;;6.68;1.02;;;;;;;4.58;100.00;99672.97;4744190;30;20039;-87
2024/04/09 05:38:59;;;;;;;5.75;0.93;;;;;;;4.59;100.00;99666.75;4740057;30;20063;-85
2024/04/09 05:41:30;;;;;;;8.07;1.67;;;;;;;4.58;100.00;99685.22;4730828;30;20173;-86
2024/04/09 05:43:57;;;;;;;8.07;1.05;;;;;;;4.56;100.00;99679.25;4750786;30;20050;-85
2024/04/09 05:46:23;;;;;;;6.75;0.70;;;;;;;4.61;100.00;99700.66;4748123;30;20047;-83
2024/04/09 05:48:49;;;;;;;9.88;1.15;;;;;;;4.58;100.00;99691.28;4756871;30;20039;-81
2024/04/09 05:51:15;;;;;;;6.88;0.95;;;;;;;4.58;100.00;99701.75;4718401;30;20043;-86
2024/04/09 05:53:41;;;;;;;5.45;0.90;;;;;;;4.56;100.00;99714.13;4750364;30;20057;-83
2024/04/09 05:56:07;;;;;;;8.75;0.90;;;;;;;4.57;100.00;99707.13;4734649;30;20047;-82
2024/04/09 05:58:33;;;;;;;9.88;0.77;;;;;;;4.60;100.00;99712.09;4742503;30;20055;-81
2024/04/09 06:01:00;;;;;;;7.35;0.80;;;;;;;4.58;100.00;99714.00;4729627;30;20058;-82
2024/04/09 06:03:27;;;;;;;7.55;0.75;;;;;;;4.58;100.00;99717.47;4737675;30;20049;-81
2024/04/09 06:05:55;;;;;;;7.25;0.95;;;;;;;4.59;100.00;99716.50;4734282;30;20435;-84
2024/04/09 06:08:21;;;;;;;9.43;1.02;;;;;;;4.56;100.00;99721.97;4750037;30;20051;-83
2024/04/09 06:10:48;;;;;;;6.45;1.25;;;;;;;4.60;100.00;99717.34;4715486;30;20040;-82
2024/04/09 06:13:14;;;;;;;6.55;0.90;;;;;;;4.58;100.00;99727.94;4725031;30;20101;-81
2024/04/09 06:15:40;;;;;;;6.60;1.10;;;;;;;4.61;100.00;99734.69;4720670;30;20043;-83
2024/04/09 06:18:06;;;;;;;11.32;0.80;;;;;;;4.72;100.00;99744.31;4724636;30;20083;-83
2024/04/09 06:20:32;;;;;;;10.32;2.03;;;;;;;4.83;100.00;99746.03;4763790;30;20035;-83
2024/04/09 06:22:58;;;;;;;6.82;1.35;;;;;;;4.96;100.00;99756.38;4753406;30;20035;-82
2024/04/09 06:25:23;;;;;;;6.10;0.80;;;;;;;5.03;100.00;99747.03;4753903;30;20120;-84
2024/04/09 06:27:50;;;;;;;9.77;1.17;;;;;;;5.15;100.00;99754.84;4766590;30;20035;-82
2024/04/09 06:30:16;;;;;;;8.70;1.25;;;;;;;5.23;100.00;99752.44;4771582;29;20043;-83
2024/04/09 06:32:42;;;;;;;7.22;0.98;;;;;;;5.36;100.00;99759.28;4766975;29;20511;-83
2024/04/09 06:35:08;;;;;;;14.63;1.67;;;;;;;5.52;100.00;99766.69;4752342;30;20038;-82
2024/04/09 06:37:38;;;;;;;6.82;1.38;;;;;;;5.66;100.00;99769.00;4753111;30;20413;-86
2024/04/09 06:40:07;;;;;;;6.43;1.13;;;;;;;5.76;100.00;99773.47;4736477;29;20044;-80
2024/04/09 06:42:33;;;;;;;8.50;1.00;;;;;;;5.79;100.00;99781.06;4764324;30;20046;-79
2024/04/09 06:44:59;;;;;;;4.07;0.90;;;;;;;5.84;100.00;99781.53;4733408;30;20040;-86
2024/04/09 06:47:25;;;;;;;9.43;1.25;;;;;;;5.98;100.00;99779.50;4748107;30;20113;-84
2024/04/09 06:49:51;;;;;;;8.25;1.20;;;;;;;6.06;100.00;99790.22;4782636;29;20043;-84
2024/04/09 06:52:17;;;;;;;8.05;0.95;;;;;;;6.23;100.00;99793.19;4745578;30;20120;-82
2024/04/09 06:54:43;;;;;;;6.25;1.13;;;;;;;6.35;100.00;99802.63;4767465;29;20669;-80
2024/04/09 06:57:09;;;;;;;8.85;1.23;;;;;;;6.48;100.00;99798.94;4754864;29;20038;-81
2024/04/09 06:59:35;;;;;;;10.35;1.00;;;;;;;6.55;100.00;99800.91;4778937;29;20163;-81
2024/04/09 07:02:01;;;;;;;15.93;1.25;;;;;;;6.68;100.00;99807.69;4755780;30;20490;-80
2024/04/09 07:04:27;;;;;;;6.00;0.90;;;;;;;6.81;100.00;99812.72;4747557;29;20028;-79
2024/04/09 07:06:54;;;;;;;7.47;0.85;;;;;;;6.88;100.00;99805.13;4745654;30;20064;-81
2024/04/09 07:09:20;;;;;;;5.43;0.75;;;;;;;6.98;100.00;99821.72;4780677;29;20665;-80
2024/04/09 07:11:46;;;;;;;8.57;1.27;;;;;;;7.04;100.00;99829.06;4763976;30;20063;-79
2024/04/09 07:14:13;;;;;;;7.00;1.00;;;;;;;7.09;100.00;99828.63;4761941;29;20043;-81
2024/04/09 07:16:43;;;;;;;6.43;0.85;;;;;;;7.14;100.00;99822.97;4735517;30;20528;-85
2024/04/09 07:19:09;;;;;;;5.00;1.00;;;;;;;7.13;100.00;99842.34;4747231;29;20077;-91
2024/04/09 07:21:39;;;;;;;9.82;1.00;;;;;;;6.99;100.00;99839.13;4745409;29;20049;-93
2024/04/09 07:24:12;;;;;;;6.88;0.60;;;;;;;7.04;100.00;99836.13;4743735;29;20031;-92
2024/04/09 07:26:38;;;;;;;6.13;1.45;;;;;;;7.05;100.00;99843.03;4742759;29;20084;-93
2024/04/09 07:29:04;;;;;;;7.68;0.93;;;;;;;7.16;100.00;99842.91;4760554;29;20839;-85
2024/04/09 07:31:31;;;;;;;4.88;0.70;;;;;;;7.17;100.00;99841.09;4748643;29;20043;-92
2024/04/09 07:34:17;;;;;;;5.30;1.30;;;;;;;7.27;100.00;99854.25;4745142;30;20050;-93
2024/04/09 07:36:46;;;;;;;7.22;1.27;;;;;;;7.14;100.00;99850.09;4745734;29;20039;-93
2024/04/09 07:39:14;;;;;;;2.72;0.57;;;;;;;7.13;100.00;99852.84;4773722;30;20035;-92
2024/04/09 07:41:41;;;;;;;7.68;0.82;;;;;;;7.23;100.00;99871.28;4772217;30;20078;-93
2024/04/09 07:44:10;;;;;;;8.38;0.82;;;;;;;7.27;100.00;99867.38;4759542;30;20674;-89
2024/04/09 07:46:36;;;;;;;14.70;1.77;;;;;;;7.36;100.00;99882.34;4765396;29;20086;-92
2024/04/09 07:49:05;;;;;;;7.85;0.98;;;;;;;7.32;100.00;99894.94;4761289;30;20039;-94
2024/04/09 07:51:37;;;;;;;9.48;1.67;;;;;;;7.38;100.00;99905.88;4761051;30;20050;-94
2024/04/09 07:54:08;;;;;;;9.73;1.20;;;;;;;7.19;100.00;99899.63;4760802;30;20039;-90
2024/04/09 07:56:34;;;;;;;6.88;1.17;;;;;;;7.23;100.00;99903.63;4737470;29;20132;-92
2024/04/09 07:59:00;;;;;;;6.90;0.90;;;;;;;7.29;100.00;99913.59;4755562;30;20080;-91
2024/04/09 08:01:26;;;;;;;12.63;1.10;;;;;;;7.44;100.00;99915.84;4758121;29;20055;-94
2024/04/09 08:03:55;;;;;;;8.85;0.98;;;;;;;7.48;100.00;99940.91;4773614;29;20096;-94
2024/04/09 08:06:21;;;;;;;4.80;0.63;;;;;;;7.48;100.00;99932.19;4751537;30;20039;-92
2024/04/09 08:08:48;;;;;;;8.95;1.77;;;;;;;7.48;100.00;99933.00;4755531;29;20056;-90
2024/04/09 08:11:14;;;;;;;7.20;1.42;;;;;;;7.50;100.00;99943.41;4759352;30;20134;-92
2024/04/09 08:13:46;;;;;;;8.23;0.82;;;;;;;7.51;100.00;99943.25;4764039;29;20545;-94
2024/04/09 08:16:12;;;;;;;7.50;0.85;;;;;;;7.45;100.00;99949.06;4758858;30;20130;-94
2024/04/09 08:18:44;;;;;;;9.27;2.58;;;;;;;7.45;100.00;99964.84;4758677;29;20056;-92
2024/04/09 08:21:10;;;;;;;11.07;0.90;;;;;;;7.49;100.00;99963.59;4778160;30;20040;-91
2024/04/09 08:23:40;;;;;;;6.13;0.50;;;;;;;7.64;100.00;99955.31;4746813;29;20054;-93
2024/04/09 08:26:08;;;;;;;8.07;1.00;;;;;;;7.68;100.00;99970.69;4750755;30;20063;-93
2024/04/09 08:28:37;;;;;;;6.35;1.40;;;;;;;7.74;100.00;99971.09;4764610;29;20038;-93
2024/04/09 08:31:13;;;;;;;9.65;0.80;;;;;;;7.75;100.00;99980.66;4759551;29;20162;-90
2024/04/09 08:33:40;;;;;;;15.88;1.92;;;;;;;7.91;100.00;99988.00;4726111;29;20054;-90
2024/04/09 08:36:06;;;;;;;9.70;0.90;;;;;;;8.04;100.00;99987.72;4760826;30;20055;-92
2024/04/09 08:38:33;;;;;;;8.10;1.33;;;;;;;8.04;100.00;99980.66;4746534;29;20038;-92
2024/04/09 08:40:59;;;;;;;4.68;0.65;;;;;;;8.01;100.00;99988.81;4762086;30;20055;-92
2024/04/09 08:43:27;;;;;;;6.28;0.80;;;;;;;7.91;100.00;99982.75;4767107;29;20039;-90
2024/04/09 08:45:53;;;;;;;4.25;0.90;;;;;;;7.86;100.00;99977.91;4773519;30;20043;-91
2024/04/09 08:48:24;;;;;;;6.13;1.05;;;;;;;7.89;100.00;100003.09;4774025;29;20043;-92
2024/04/09 08:50:54;;;;;;;6.43;0.93;;;;;;;7.84;100.00;100014.03;4751519;29;20063;-90
2024/04/09 08:53:23;;;;;;;6.43;0.68;;;;;;;7.78;100.00;100009.31;4756722;30;20075;-89
2024/04/09 08:55:50;;;;;;;6.57;0.90;;;;;;;7.86;100.00;100022.63;4763194;30;20040;-91
2024/04/09 08:58:27;;;;;;;6.10;0.80;;;;;;;7.93;100.00;100017.66;4754825;29;20042;-88
2024/04/09 09:01:00;;;;;;;11.15;1.00;;;;;;;8.05;100.00;100026.25;4747709;30;20489;-89
2024/04/09 09:03:26;;;;;;;11.13;1.13;;;;;;;8.10;100.00;100038.97;4758841;29;20055;-90
2024/04/09 09:06:23;;;;;;;9.95;1.77;;;;;;;8.26;100.00;100038.44;4755536;29;20149;-95
2024/04/09 09:08:58;;;;;;;7.78;1.10;;;;;;;8.34;100.00;100053.53;4757604;29;20042;-94
2024/04/09 09:11:24;;;;;;;9.85;1.27;;;;;;;8.30;100.00;100051.19;4759008;30;20531;-91
2024/04/09 09:13:50;;;;;;;1.67;0.70;;;;;;;8.37;100.00;100042.72;4767091;30;20054;-90
2024/04/09 09:16:16;;;;;;;3.40;0.80;;;;;;;8.30;100.00;100050.34;4733839;30;20569;-81
2024/04/09 09:18:42;;;;;;;10.65;1.10;;;;;;;8.40;100.00;100059.06;4758386;29;20079;-79
2024/04/09 09:21:08;;;;;;;6.07;0.80;;;;;;;8.55;100.00;100058.69;4765982;29;20036;-82
2024/04/09 09:23:34;;;;;;;8.10;1.38;;;;;;;8.64;100.00;100047.28;4739423;30;20070;-80
2024/04/09 09:26:02;;;;;;;7.65;0.85;;;;;;;8.63;100.00;100063.25;4736810;29;20078;-82
2024/04/09 09:28:28;;;;;;;7.65;0.90;;;;;;;8.62;100.00;100072.94;4746981;29;20120;-79
2024/04/09 09:30:56;;;;;;;14.52;2.22;;;;;;;8.76;100.00;100081.41;4773697;29;20080;-81
2024/04/09 09:33:29;;;;;;;4.13;0.75;;;;;;;8.90;100.00;100072.22;4759381;29;20040;-82
2024/04/09 09:35:56;;;;;;;6.70;1.00;;;;;;;8.96;100.00;100082.19;4740099;29;20031;-85
2024/04/09 09:38:23;;;;;;;6.50;1.10;;;;;;;9.05;100.00;100077.84;4756409;29;20035;-82
2024/04/09 09:40:51;;;;;;;6.55;1.33;;;;;;;9.00;100.00;100074.81;4750726;29;20050;-84
2024/04/09 09:43:22;;;;;;;5.25;0.80;;;;;;;9.04;100.00;100084.09;4773155;29;20115;-82
2024/04/09 09:45:51;;;;;;;11.63;1.10;;;;;;;9.19;100.00;100087.09;4778860;29;20039;-84
2024/04/09 09:48:19;;;;;;;6.78;1.48;;;;;;;9.19;100.00;100105.56;4754434;29;20066;-81
2024/04/09 09:50:45;;;;;;;4.65;0.98;;;;;;;9.25;100.00;100088.34;4763581;30;20074;-81
2024/04/09 09:53:11;;;;;;;5.75;0.93;;;;;;;9.26;100.00;100088.19;4774556;29;20051;-85
2024/04/09 09:55:40;;;;;;;3.92;0.57;;;;;;;9.22;100.00;100102.63;4750532;30;20083;-85
2024/04/09 09:58:20;;;;;;;7.32;0.98;;;;;;;9.24;100.00;100091.94;4759635;29;20400;-84
2024/04/09 10:00:48;;;;;;;4.90;0.60;;;;;;;9.34;100.00;100097.19;4749959;30;20138;-89
2024/04/09 10:03:15;;;;;;;7.57;0.80;;;;;;;9.45;100.00;100096.16;4737046;30;20043;-85
2024/04/09 10:05:41;;;;;;;4.13;1.15;;;;;;;9.55;100.00;100105.72;4749779;29;20051;-84
2024/04/09 10:08:27;;;;;;;5.88;0.73;;;;;;;9.70;100.00;100112.31;4742549;30;20071;-85
2024/04/09 10:10:53;;;;;;;;;;;;;;;9.53;100.00;100098.91;4766053;29;20579;-80
2024/04/09 10:13:21;;;;;;;6.05;0.80;;;;;;;9.55;100.00;100113.63;4766086;30;19917;-77
2024/04/09 10:15:48;;;;;;;3.13;0.68;;;;;;;9.64;100.00;100119.00;4747045;29;20044;-82
2024/04/09 10:18:46;;;;;;;10.10;0.82;;;;;;;9.47;100.00;100133.78;4750224;30;20082;-82
2024/04/09 10:21:15;;;;;;;1.52;0.20;;;;;;;9.39;100.00;100145.06;4732407;30;20050;-83
2024/04/09 10:23:41;;;;;;;3.03;0.40;;;;;;;9.29;100.00;100153.84;4739887;29;20417;-83
2024/04/09 10:26:11;;;;;;;1.98;0.38;;;;;;;9.07;100.00;100165.53;4736138;30;20040;-81
2024/04/09 10:28:37;;;;;;;1.73;0.30;;;;;;;8.98;100.00;100161.13;4738358;29;20197;-80
2024/04/09 10:31:04;;;;;;;4.20;0.40;;;;;;;9.11;100.00;100161.63;4762815;30;20035;-83
2024/04/09 10:33:35;;;;;;;3.50;0.40;;;;;;;9.14;100.00;100160.53;4733136;29;20576;-83
2024/04/09 10:36:09;;;;;;;6.22;0.60;;;;;;;9.14;100.00;100177.19;4765212;29;20039;-84
2024/04/09 10:38:41;;;;;;;8.25;0.80;;;;;;;9.26;100.00;100177.88;4737296;29;20435;-84
2024/04/09 10:41:07;;;;;;;5.78;0.60;;;;;;;9.38;100.00;100181.16;4750055;30;20421;-81
2024/04/09 10:43:37;;;;;;;6.25;0.93;;;;;;;9.46;100.00;100176.97;4749971;30;20155;-82
2024/04/09 10:46:04;;;;;;;9.52;0.65;;;;;;;9.45;100.00;100173.50;4778983;29;20046;-83
2024/04/09 10:48:31;;;;;;;5.45;0.60;;;;;;;9.68;100.00;100181.06;4764935;29;20134;-83
2024/04/09 10:50:59;;;;;;;4.82;0.70;;;;;;;9.85;100.00;100182.09;4763288;29;20051;-81
2024/04/09 10:53:25;;;;;;;6.63;0.60;;;;;;;9.86;100.00;100177.66;4737435;30;20051;-79
2024/04/09 10:56:01;;;;;;;6.22;0.77;;;;;;;9.94;100.00;100188.31;4765179;29;20050;-79
2024/04/09 10:58:27;;;;;;;;;;;;;;;9.91;100.00;100193.88;4772273;30;20052;-82
2024/04/09 11:00:54;;;;;;;3.85;0.70;;;;;;;9.93;100.00;100187.50;4780726;29;19924;-83
2024/04/09 11:03:22;;;;;;;4.40;0.55;;;;;;;10.19;100.00;100191.25;4750835;30;20043;-83
2024/04/09 11:05:51;;;;;;;6.75;0.77;;;;;;;10.30;100.00;100179.63;4746509;30;20039;-80
2024/04/09 11:08:33;;;;;;;4.38;0.85;;;;;;;10.32;100.00;100198.78;4767786;30;20088;-80
2024/04/09 11:11:00;;;;;;;5.05;0.70;;;;;;;9.99;100.00;100223.03;4745648;30;20035;-82
2024/04/09 11:13:27;;;;;;;3.00;0.47;;;;;;;9.29;100.00;100222.41;4744158;29;20055;-82
2024/04/09 11:15:53;;;;;;;3.00;0.93;;;;;;;8.72;100.00;100238.94;4763860;29;20086;-83
2024/04/09 11:18:22;;;;;;;2.28;0.52;;;;;;;8.36;100.00;100241.22;4769736;29;20087;-79
2024/04/09 11:20:56;;;;;;;5.78;0.63;;;;;;;8.16;100.00;100235.88;4764817;30;20047;-81
2024/04/09 11:23:26;;;;;;;6.00;0.70;;;;;;;8.03;100.00;100234.31;4765319;29;20126;-80
2024/04/09 11:25:53;;;;;;;3.30;0.50;;;;;;;8.03;100.00;100239.56;4753905;30;20040;-81
2024/04/09 11:28:21;;;;;;;4.22;1.00;;;;;;;8.22;100.00;100245.88;4760373;30;20393;-81
2024/04/09 11:30:51;;;;;;;3.58;0.60;;;;;;;8.48;100.00;100237.50;4766023;29;20044;-81
2024/04/09 11:33:18;;;;;;;5.90;1.50;;;;;;;8.75;100.00;100238.66;4767215;30;20051;-81